Time;durP1;ratioP1;P1;durP2;ratioP2;P2;SDS_P1;SDS_P2;PMS_P1;PMS_P2;Temp;Humidity;BMP_temperature;BMP_pressure;BME280_temperature;BME280_humidity;BME280_pressure;Samples;Min_cycle;Max_cycle;Signal;HPM_P1;HPM_P2
2022/07/30 00:00:05;;;;;;;4.13;2.97;;;17.10;1.00;;;;;;5096523;28;20403;-78
2022/07/30 00:02:31;;;;;;;6.90;3.40;;;17.00;1.00;;;;;;5095357;28;20407;-78
2022/07/30 00:05:00;;;;;;;5.40;2.87;;;17.00;1.00;;;;;;5095262;28;20427;-77
2022/07/30 00:07:26;;;;;;;5.63;3.73;;;16.90;1.00;;;;;;5096114;28;20431;-70
2022/07/30 00:09:57;;;;;;;3.70;3.23;;;16.90;1.00;;;;;;5077879;28;20412;-78
2022/07/30 00:12:24;;;;;;;3.47;2.90;;;16.90;1.00;;;;;;5095281;28;20469;-77
2022/07/30 00:14:52;;;;;;;3.00;2.83;;;16.90;1.00;;;;;;5096087;28;20507;-78
2022/07/30 00:17:18;;;;;;;3.13;2.83;;;16.90;1.00;;;;;;5096049;28;20454;-71
2022/07/30 00:19:44;;;;;;;3.00;2.70;;;17.00;1.00;;;;;;5096040;28;20399;-71
2022/07/30 00:22:32;;;;;;;5.47;2.80;;;17.00;1.00;;;;;;5095236;28;20235;-74
2022/07/30 00:25:01;;;;;;;4.70;3.00;;;17.10;1.00;;;;;;5074979;28;20448;-71
2022/07/30 00:27:33;;;;;;;4.00;2.90;;;17.10;1.00;;;;;;5094654;28;20469;-78
2022/07/30 00:30:00;;;;;;;3.43;3.13;;;17.10;1.00;;;;;;5076083;28;20408;-78
2022/07/30 00:32:36;;;;;;;6.33;3.03;;;17.10;1.00;;;;;;5093639;28;20534;-78
2022/07/30 00:35:02;;;;;;;4.83;3.27;;;17.20;1.00;;;;;;5076278;28;20947;-72
2022/07/30 00:37:28;;;;;;;3.80;2.80;;;17.20;1.00;;;;;;5094285;28;20408;-77
2022/07/30 00:39:56;;;;;;;6.50;3.30;;;17.20;1.00;;;;;;5094412;28;20404;-77
2022/07/30 00:42:28;;;;;;;3.20;2.90;;;17.20;1.00;;;;;;5091320;28;20461;-71
2022/07/30 00:44:54;;;;;;;3.60;3.13;;;17.20;1.00;;;;;;5094347;28;20424;-77
2022/07/30 00:47:20;;;;;;;3.30;3.00;;;17.20;1.00;;;;;;5094788;28;20453;-71
2022/07/30 00:57:13;;;;;;;5.30;3.80;;;17.30;1.00;;;;;;5094199;28;20430;-71
2022/07/30 00:59:39;;;;;;;3.90;3.60;;;17.20;99.90;;;;;;5094007;28;20400;-70
2022/07/30 01:02:05;;;;;;;3.10;2.70;;;17.20;99.90;;;;;;5074757;28;20889;-78
2022/07/30 01:04:47;;;;;;;6.90;3.30;;;17.30;99.90;;;;;;5093381;28;20427;-71
2022/07/30 01:07:13;;;;;;;5.87;3.87;;;17.30;99.90;;;;;;5094034;28;20414;-78
2022/07/30 01:09:39;;;;;;;2.77;2.57;;;17.30;99.90;;;;;;5076003;28;20440;-71
2022/07/30 01:12:17;;;;;;;5.63;2.87;;;17.30;99.90;;;;;;5092426;28;20463;-71
2022/07/30 01:14:43;;;;;;;3.83;3.20;;;17.30;99.90;;;;;;5094025;28;20419;-71
2022/07/30 01:17:21;;;;;;;3.97;3.67;;;17.30;99.90;;;;;;5092074;28;20457;-78
2022/07/30 01:19:51;;;;;;;2.97;2.60;;;17.40;99.90;;;;;;5075794;28;20416;-77
2022/07/30 01:22:21;;;;;;;3.07;2.87;;;17.40;99.90;;;;;;5092814;28;20404;-78
2022/07/30 01:25:05;;;;;;;4.07;3.10;;;17.40;99.90;;;;;;4670216;28;12064347;-77
2022/07/30 01:27:39;;;;;;;5.43;3.47;;;17.40;99.90;;;;;;5094744;28;20410;-73
2022/07/30 01:30:07;;;;;;;2.97;2.70;;;17.40;99.90;;;;;;5094699;28;20903;-70
2022/07/30 01:32:53;;;;;;;4.43;3.50;;;17.40;99.90;;;;;;5093764;28;20400;-78
2022/07/30 01:35:22;;;;;;;2.70;2.60;;;17.40;99.90;;;;;;5093708;28;20904;-71
2022/07/30 01:37:50;;;;;;;3.87;2.80;;;17.40;99.90;;;;;;5076263;28;20422;-79
2022/07/30 01:40:17;;;;;;;2.87;2.63;;;17.40;99.90;;;;;;5075657;28;20415;-71
2022/07/30 01:49:43;;;;;;;3.30;3.00;;;17.40;99.90;;;;;;5094161;28;20504;-70
2022/07/30 01:52:17;;;;;;;4.37;3.40;;;17.40;99.90;;;;;;5093694;28;20454;-75
2022/07/30 01:55:12;;;;;;;4.90;4.10;;;17.40;99.90;;;;;;5075273;28;20424;-78
2022/07/30 01:57:59;;;;;;;4.30;3.90;;;17.30;99.90;;;;;;5093449;28;20411;-71
2022/07/30 02:00:29;;;;;;;5.33;3.43;;;17.30;99.90;;;;;;5093493;28;20943;-79
2022/07/30 02:02:56;;;;;;;5.80;3.40;;;17.20;99.90;;;;;;5074863;28;20427;-70
2022/07/30 02:05:23;;;;;;;3.57;3.27;;;17.10;99.90;;;;;;5094055;28;20915;-71
2022/07/30 02:08:00;;;;;;;5.37;3.77;;;17.10;99.90;;;;;;5093900;28;20415;-78
2022/07/30 02:10:51;;;;;;;4.57;3.13;;;17.20;1.00;;;;;;5093543;28;20541;-71
2022/07/30 02:13:20;;;;;;;3.33;2.80;;;17.20;99.90;;;;;;5074301;28;20433;-71
2022/07/30 02:15:57;;;;;;;5.83;2.70;;;17.30;99.90;;;;;;5093601;28;20444;-78
2022/07/30 02:18:39;;;;;;;3.23;3.03;;;17.30;99.90;;;;;;5093591;28;20461;-71
2022/07/30 02:21:16;;;;;;;3.40;3.10;;;17.30;99.90;;;;;;5075558;28;20476;-78
2022/07/30 02:23:45;;;;;;;6.17;3.00;;;17.40;99.90;;;;;;5092584;28;20443;-78
2022/07/30 02:26:20;;;;;;;3.10;2.73;;;17.40;99.90;;;;;;5075387;28;20510;-71
2022/07/30 02:28:51;;;;;;;7.20;2.90;;;17.40;99.90;;;;;;5075427;28;20892;-72
2022/07/30 02:31:24;;;;;;;4.37;2.80;;;17.40;99.90;;;;;;5092541;28;20447;-78
2022/07/30 02:33:57;;;;;;;4.03;3.50;;;17.40;99.90;;;;;;5074384;28;20438;-79
2022/07/30 02:36:27;;;;;;;5.33;4.03;;;17.40;99.90;;;;;;5093294;28;20438;-78
2022/07/30 02:38:55;;;;;;;5.03;3.77;;;17.30;99.90;;;;;;5075317;28;20412;-78
2022/07/30 02:41:23;;;;;;;4.37;3.10;;;17.30;99.90;;;;;;5093520;28;20443;-70
2022/07/30 02:43:52;;;;;;;9.53;3.60;;;17.30;99.90;;;;;;5092305;28;20466;-74
2022/07/30 02:46:26;;;;;;;3.83;3.10;;;17.30;99.90;;;;;;5092818;28;20498;-72
2022/07/30 02:48:56;;;;;;;3.93;3.50;;;17.30;99.90;;;;;;5093107;28;20428;-77
2022/07/30 02:54:16;;;;;;;4.17;3.77;;;17.40;99.90;;;;;;5081187;28;20435;-79
2022/07/30 02:56:43;;;;;;;4.20;2.97;;;17.40;99.90;;;;;;5093179;28;20415;-79
2022/07/30 02:59:10;;;;;;;7.73;4.17;;;17.40;99.90;;;;;;5093147;28;20407;-70
2022/07/30 03:01:37;;;;;;;5.13;3.20;;;17.40;99.90;;;;;;5091919;28;20503;-71
2022/07/30 03:04:05;;;;;;;4.70;3.30;;;17.30;99.90;;;;;;5091000;28;20436;-78
2022/07/30 03:06:32;;;;;;;11.23;4.10;;;17.30;99.90;;;;;;5092140;28;20399;-77
2022/07/30 03:09:09;;;;;;;3.23;2.93;;;17.20;99.90;;;;;;5091833;28;20466;-71
2022/07/30 03:15:30;;;;;;;3.23;3.03;;;17.10;99.90;;;;;;5093041;28;20423;-72
2022/07/30 03:18:00;;;;;;;4.67;2.80;;;17.10;99.90;;;;;;5091825;28;20415;-70
2022/07/30 03:20:32;;;;;;;3.30;3.00;;;17.10;99.90;;;;;;5092946;28;20465;-76
2022/07/30 03:23:07;;;;;;;8.80;3.60;;;17.10;99.90;;;;;;5091508;28;20439;-75
2022/07/30 03:25:34;;;;;;;3.50;3.30;;;17.10;99.90;;;;;;5091048;28;20455;-72
2022/07/30 03:28:05;;;;;;;8.33;3.47;;;17.10;99.90;;;;;;5091919;28;20426;-78
2022/07/30 03:30:33;;;;;;;5.17;3.07;;;17.10;99.90;;;;;;5091477;28;20836;-75
2022/07/30 03:33:03;;;;;;;3.33;3.03;;;17.10;99.90;;;;;;5090451;28;20927;-78
2022/07/30 03:35:30;;;;;;;3.47;3.17;;;17.00;99.90;;;;;;5092764;28;20503;-78
2022/07/30 03:37:57;;;;;;;3.30;3.10;;;17.00;99.90;;;;;;5074713;28;20422;-70
2022/07/30 03:40:23;;;;;;;3.63;2.73;;;17.10;1.00;;;;;;5092604;28;20472;-78
2022/07/30 03:54:08;;;;;;;2.90;2.70;;;17.20;99.90;;;;;;5009525;28;20482;-78
2022/07/30 03:56:43;;;;;;;3.30;3.00;;;17.10;99.90;;;;;;5039339;28;20400;-78
2022/07/30 03:59:18;;;;;;;3.67;3.37;;;17.00;99.90;;;;;;5091812;28;20486;-71
2022/07/30 04:01:49;;;;;;;6.63;3.67;;;17.00;99.90;;;;;;5092372;28;20472;-71
2022/07/30 04:04:25;;;;;;;3.60;3.30;;;16.90;1.00;;;;;;5092606;28;20469;-73
2022/07/30 04:06:54;;;;;;;4.83;2.60;;;16.90;99.90;;;;;;5096733;28;20399;-72
2022/07/30 04:09:26;;;;;;;6.37;3.43;;;16.90;99.90;;;;;;5096195;28;20410;-78
2022/07/30 04:11:52;;;;;;;3.40;3.10;;;16.90;99.90;;;;;;5096074;28;20465;-79
2022/07/30 04:14:21;;;;;;;3.47;3.17;;;16.90;99.90;;;;;;5093836;28;20441;-71
2022/07/30 04:16:58;;;;;;;3.17;2.97;;;16.90;99.90;;;;;;5094108;28;20170;-76
2022/07/30 04:19:32;;;;;;;3.27;3.00;;;16.90;1.00;;;;;;5096000;28;20495;-71
2022/07/30 04:22:10;;;;;;;4.03;3.20;;;16.90;1.00;;;;;;5077916;28;20422;-78
2022/07/30 04:24:39;;;;;;;6.60;3.70;;;16.90;1.00;;;;;;5095660;28;20439;-70
2022/07/30 04:27:07;;;;;;;3.10;2.90;;;16.90;1.00;;;;;;5077572;28;20417;-71
2022/07/30 04:29:42;;;;;;;4.30;3.90;;;17.00;1.00;;;;;;5077609;28;20426;-78
2022/07/30 04:32:15;;;;;;;2.90;2.70;;;17.00;1.00;;;;;;5077277;28;20462;-72
2022/07/30 04:35:37;;;;;;;;;;;;;;;;;;;;;
2022/07/30 04:38:03;;;;;;;10.33;3.20;;;17.10;1.00;;;;;;4993808;28;20418;-79
2022/07/30 04:40:30;;;;;;;3.67;2.47;;;17.30;1.00;;;;;;5064036;28;20411;-71
2022/07/30 04:42:57;;;;;;;2.83;2.63;;;17.30;1.00;;;;;;5094622;28;20408;-72
2022/07/30 04:45:25;;;;;;;2.83;2.60;;;17.40;1.00;;;;;;5077113;28;20435;-70
2022/07/30 04:47:52;;;;;;;3.80;2.60;;;17.40;1.00;;;;;;5095212;28;20412;-78
2022/07/30 04:50:22;;;;;;;6.83;3.40;;;17.40;1.00;;;;;;5095175;28;20970;-78
2022/07/30 04:52:51;;;;;;;5.43;3.67;;;17.30;1.00;;;;;;5093665;28;20440;-70
2022/07/30 04:55:44;;;;;;;4.13;2.80;;;17.30;1.00;;;;;;5076795;28;20438;-71
2022/07/30 04:58:12;;;;;;;4.10;2.53;;;17.30;1.00;;;;;;5077138;28;20464;-69
2022/07/30 05:00:43;;;;;;;5.00;3.17;;;17.30;1.00;;;;;;5077302;28;20426;-69
2022/07/30 05:03:22;;;;;;;;;;;;;;;;;;;;;
2022/07/30 05:05:49;;;;;;;2.70;2.50;;;17.30;1.00;;;;;;5094864;28;20431;-77
2022/07/30 05:08:16;;;;;;;5.10;3.07;;;17.30;1.00;;;;;;5076934;28;20437;-77
2022/07/30 05:10:43;;;;;;;6.93;3.60;;;17.30;1.00;;;;;;5076554;28;21020;-69
2022/07/30 05:13:15;;;;;;;4.83;3.23;;;17.40;1.00;;;;;;5093269;28;20403;-77
2022/07/30 05:15:51;;;;;;;2.93;2.57;;;17.50;1.00;;;;;;5093558;28;20942;-78
2022/07/30 05:18:16;;;;;;;4.00;2.97;;;17.60;1.00;;;;;;5094870;28;20903;-78
2022/07/30 05:20:42;;;;;;;4.10;2.30;;;17.60;1.00;;;;;;5094997;28;20435;-70
2022/07/30 05:23:08;;;;;;;3.00;2.30;;;17.70;1.00;;;;;;5093918;28;20703;-77
2022/07/30 05:25:34;;;;;;;3.43;2.63;;;17.80;1.00;;;;;;5076591;28;20492;-72
2022/07/30 05:28:00;;;;;;;3.40;1.87;;;17.90;1.00;;;;;;5094827;28;20411;-78
2022/07/30 05:30:26;;;;;;;2.60;2.40;;;18.00;1.00;;;;;;5094412;28;20522;-69
2022/07/30 05:32:55;;;;;;;4.43;2.90;;;18.10;1.00;;;;;;5093128;28;20237;-71
2022/07/30 05:35:26;;;;;;;3.27;2.47;;;18.10;1.00;;;;;;5094411;28;20416;-70
2022/07/30 05:38:22;;;;;;;5.30;2.43;;;18.10;1.00;;;;;;5094419;28;20399;-77
2022/07/30 05:40:47;;;;;;;5.57;2.80;;;18.20;99.90;;;;;;5094210;28;20935;-69
2022/07/30 05:43:19;;;;;;;3.40;2.17;;;18.20;99.90;;;;;;5093542;28;20411;-78
2022/07/30 05:45:45;;;;;;;2.87;2.47;;;18.20;99.90;;;;;;5076020;28;20530;-78
2022/07/30 05:48:13;;;;;;;3.07;2.87;;;18.20;99.90;;;;;;5094338;28;20533;-72
2022/07/30 05:50:39;;;;;;;2.70;2.50;;;18.10;99.90;;;;;;5093282;28;20447;-78
2022/07/30 05:53:05;;;;;;;3.03;2.40;;;18.10;99.90;;;;;;5075461;28;20422;-78
2022/07/30 05:55:51;;;;;;;3.30;2.70;;;18.20;99.90;;;;;;5076227;28;20577;-77
2022/07/30 06:02:09;;;;;;;3.30;2.77;;;18.50;99.90;;;;;;5094063;28;20792;-76
2022/07/30 06:05:13;;;;;;;3.40;2.20;;;18.60;99.90;;;;;;5076044;28;20466;-81
2022/07/30 06:07:39;;;;;;;2.57;2.37;;;18.60;99.90;;;;;;5089181;28;20416;-80
2022/07/30 06:10:05;;;;;;;2.70;2.27;;;18.60;99.90;;;;;;5093298;28;20411;-75
2022/07/30 06:12:31;;;;;;;8.53;2.90;;;18.60;99.90;;;;;;5092952;28;20188;-78
2022/07/30 06:15:08;;;;;;;;;;;;;;;;;;;;;
2022/07/30 06:17:39;;;;;;;2.40;2.10;;;18.70;99.90;;;;;;5093829;28;20890;-75
2022/07/30 06:20:05;;;;;;;3.00;2.70;;;18.80;99.90;;;;;;5093701;28;20404;-74
2022/07/30 06:22:34;;;;;;;2.80;2.60;;;18.80;99.90;;;;;;5092725;28;20392;-75
2022/07/30 06:25:09;;;;;;;4.83;2.57;;;18.70;99.90;;;;;;5074675;28;20439;-76
2022/07/30 06:41:27;;;;;;;2.80;1.87;;;18.90;99.90;;;;;;5012576;28;20399;-74
2022/07/30 06:43:53;;;;;;;3.00;2.20;;;18.90;99.90;;;;;;5009636;28;20429;-76
2022/07/30 06:46:39;;;;;;;;;;;;;;;;;;;;;
2022/07/30 06:52:21;;;;;;;5.83;2.73;;;19.20;99.90;;;;;;5092892;28;20552;-78
2022/07/30 06:54:50;;;;;;;3.10;2.83;;;19.30;99.90;;;;;;5093146;28;20415;-78
2022/07/30 06:57:26;;;;;;;5.50;1.90;;;19.40;99.90;;;;;;5093096;28;20415;-78
2022/07/30 07:00:04;;;;;;;2.53;2.00;;;19.40;99.90;;;;;;5093171;28;20413;-78
2022/07/30 07:02:31;;;;;;;7.33;2.60;;;19.50;99.90;;;;;;5091425;28;21209;-77
2022/07/30 07:04:59;;;;;;;5.37;1.90;;;19.50;99.90;;;;;;5075297;28;20439;-74
2022/07/30 07:08:19;;;;;;;3.80;2.40;;;19.60;99.90;;;;;;5093242;28;20415;-77
2022/07/30 07:10:45;;;;;;;5.43;3.70;;;19.60;99.90;;;;;;5070698;28;20493;-73
2022/07/30 07:13:12;;;;;;;4.17;2.50;;;19.70;99.90;;;;;;5092123;28;20419;-77
2022/07/30 07:15:40;;;;;;;2.27;2.07;;;19.80;99.90;;;;;;5092765;28;20423;-74
2022/07/30 07:18:14;;;;;;;3.60;2.00;;;19.80;99.90;;;;;;5093066;28;20419;-77
2022/07/30 07:20:45;;;;;;;3.37;2.73;;;19.90;99.90;;;;;;5092124;28;20419;-75
2022/07/30 07:23:11;;;;;;;2.30;2.20;;;19.90;99.90;;;;;;5092051;28;20778;-74
2022/07/30 07:25:37;;;;;;;2.57;2.30;;;20.00;99.90;;;;;;5092755;28;20439;-77
2022/07/30 07:28:03;;;;;;;2.93;2.67;;;20.00;99.90;;;;;;5093037;28;20477;-73
2022/07/30 07:30:29;;;;;;;3.00;2.40;;;20.10;99.90;;;;;;5092723;28;20189;-78
2022/07/30 07:32:55;;;;;;;4.43;2.60;;;20.20;99.90;;;;;;5091885;28;20408;-77
2022/07/30 07:35:21;;;;;;;3.20;2.90;;;20.40;95.90;;;;;;5092886;28;20425;-78
2022/07/30 07:37:47;;;;;;;2.60;2.17;;;20.40;96.30;;;;;;5092668;28;20166;-78
2022/07/30 07:40:13;;;;;;;3.50;2.70;;;20.40;96.10;;;;;;5094830;28;20418;-77
2022/07/30 07:42:39;;;;;;;2.50;2.30;;;20.50;95.90;;;;;;5095861;28;20395;-71
2022/07/30 07:45:05;;;;;;;4.30;3.20;;;20.60;90.70;;;;;;5095672;28;20197;-70
2022/07/30 07:47:41;;;;;;;3.77;2.40;;;20.70;61.00;;;;;;5096881;28;20178;-74
2022/07/30 07:50:07;;;;;;;3.50;2.40;;;20.70;76.40;;;;;;5096584;28;20407;-70
2022/07/30 07:52:33;;;;;;;2.47;2.10;;;20.90;67.90;;;;;;5095826;28;20895;-79
2022/07/30 07:54:59;;;;;;;5.03;2.67;;;21.00;64.30;;;;;;5078523;28;20423;-78
2022/07/30 07:57:25;;;;;;;2.57;2.37;;;21.10;44.10;;;;;;5095839;28;20177;-78
2022/07/30 07:59:53;;;;;;;6.53;2.50;;;21.20;17.10;;;;;;5096347;28;20646;-78
2022/07/30 08:02:19;;;;;;;2.97;2.70;;;21.30;28.80;;;;;;5095687;28;20699;-70
2022/07/30 08:04:45;;;;;;;2.00;1.90;;;21.50;16.20;;;;;;5096247;28;20793;-78
2022/07/30 08:07:11;;;;;;;2.93;2.73;;;21.50;1.00;;;;;;5096305;28;20412;-69
2022/07/30 08:09:37;;;;;;;4.07;2.53;;;21.60;1.00;;;;;;5096153;28;20896;-77
2022/07/30 08:12:03;;;;;;;2.13;1.93;;;21.60;1.00;;;;;;5095976;28;20556;-78
2022/07/30 08:14:35;;;;;;;2.73;2.53;;;21.70;1.00;;;;;;5095677;28;20239;-77
2022/07/30 08:17:00;;;;;;;3.53;2.43;;;21.80;1.00;;;;;;5095730;28;20503;-74
2022/07/30 08:19:26;;;;;;;2.90;2.70;;;21.80;1.00;;;;;;5095395;28;20475;-70
2022/07/30 08:21:52;;;;;;;4.73;2.10;;;21.90;1.00;;;;;;5095918;28;20645;-70
2022/07/30 08:24:18;;;;;;;5.87;2.20;;;22.00;1.00;;;;;;5095035;28;20446;-70
2022/07/30 08:26:43;;;;;;;2.80;2.60;;;22.10;1.00;;;;;;5095963;28;20177;-78
2022/07/30 08:29:09;;;;;;;2.50;2.30;;;22.20;1.00;;;;;;5095705;28;20169;-77
2022/07/30 08:31:35;;;;;;;2.70;2.50;;;22.20;1.00;;;;;;5095867;28;20224;-76
2022/07/30 08:34:00;;;;;;;3.57;3.23;;;22.30;1.00;;;;;;5094939;28;20185;-79
2022/07/30 08:36:26;;;;;;;4.23;3.63;;;22.40;1.00;;;;;;5095623;28;20166;-70
2022/07/30 08:38:52;;;;;;;2.60;2.40;;;22.60;1.00;;;;;;5094801;28;20174;-75
2022/07/30 08:41:21;;;;;;;3.80;2.83;;;22.70;1.00;;;;;;5077343;28;20638;-78
2022/07/30 08:43:49;;;;;;;3.53;2.40;;;22.70;1.00;;;;;;5094846;28;20193;-70
2022/07/30 08:46:17;;;;;;;3.20;2.90;;;22.70;1.00;;;;;;5095676;28;20787;-71
2022/07/30 08:48:44;;;;;;;2.90;2.70;;;22.80;1.00;;;;;;5077460;28;20863;-69
2022/07/30 08:51:10;;;;;;;2.27;2.07;;;22.90;1.00;;;;;;5076900;28;20853;-77
2022/07/30 08:53:36;;;;;;;2.60;2.40;;;23.00;1.00;;;;;;5076560;28;20439;-76
2022/07/30 08:56:03;;;;;;;3.00;2.67;;;23.10;1.00;;;;;;5094980;28;20434;-77
2022/07/30 08:58:31;;;;;;;3.87;3.13;;;23.00;1.00;;;;;;5077059;28;20235;-69
2022/07/30 09:00:57;;;;;;;3.37;3.07;;;23.10;1.00;;;;;;5095180;28;20410;-70
2022/07/30 09:03:23;;;;;;;3.20;3.00;;;23.20;1.00;;;;;;5094407;28;20411;-77
2022/07/30 09:05:49;;;;;;;2.43;2.20;;;23.20;1.00;;;;;;5095085;28;20485;-70
2022/07/30 09:08:14;;;;;;;4.30;3.10;;;23.40;1.00;;;;;;5095129;28;20274;-71
2022/07/30 09:10:42;;;;;;;4.03;2.90;;;23.40;1.00;;;;;;5095049;28;20443;-77
2022/07/30 09:13:33;;;;;;;3.97;2.50;;;23.50;1.00;;;;;;5093368;28;20162;-70
2022/07/30 09:16:01;;;;;;;3.03;2.83;;;23.70;1.00;;;;;;5083910;28;20434;-69
2022/07/30 09:18:29;;;;;;;2.27;1.97;;;23.70;1.00;;;;;;5094998;28;20404;-78
2022/07/30 09:20:55;;;;;;;3.00;2.43;;;23.60;1.00;;;;;;5094269;28;20753;-79
2022/07/30 09:23:21;;;;;;;2.67;2.47;;;23.70;1.00;;;;;;5093751;28;20415;-79
2022/07/30 09:25:48;;;;;;;3.60;2.87;;;23.80;1.00;;;;;;5094157;28;20201;-79
2022/07/30 09:28:14;;;;;;;5.03;2.57;;;23.80;1.00;;;;;;5094679;28;20176;-74
2022/07/30 09:30:47;;;;;;;2.87;2.60;;;23.80;1.00;;;;;;5094476;28;20931;-73
2022/07/30 09:33:13;;;;;;;9.03;3.17;;;23.80;1.00;;;;;;5092717;28;20404;-73
2022/07/30 09:35:41;;;;;;;3.03;2.83;;;23.80;1.00;;;;;;5094402;28;20511;-73
2022/07/30 09:38:07;;;;;;;3.13;2.83;;;23.80;1.00;;;;;;5094553;28;20396;-79
2022/07/30 09:40:33;;;;;;;2.60;2.43;;;23.80;1.00;;;;;;5094443;28;20395;-78
2022/07/30 09:43:08;;;;;;;2.87;2.67;;;23.80;1.00;;;;;;5093787;28;20414;-79
2022/07/30 09:45:34;;;;;;;3.27;3.07;;;23.90;1.00;;;;;;5094151;28;20427;-75
2022/07/30 09:48:01;;;;;;;3.30;3.00;;;24.10;1.00;;;;;;5094261;28;20912;-73
2022/07/30 09:50:27;;;;;;;3.20;2.67;;;24.20;1.00;;;;;;5092997;28;20406;-72
2022/07/30 09:52:54;;;;;;;2.73;2.53;;;24.50;1.00;;;;;;5093287;28;20399;-76
2022/07/30 09:55:34;;;;;;;3.10;2.80;;;24.60;1.00;;;;;;5094203;28;20431;-81
2022/07/30 09:58:02;;;;;;;2.43;2.23;;;24.70;1.00;;;;;;5094177;28;20953;-76
2022/07/30 10:00:30;;;;;;;3.40;2.73;;;24.60;1.00;;;;;;5094107;28;20499;-79
2022/07/30 10:02:56;;;;;;;4.53;2.70;;;24.60;1.00;;;;;;5092502;28;20408;-75
2022/07/30 10:05:23;;;;;;;3.20;2.20;;;24.50;1.00;;;;;;5093973;28;20779;-75
2022/07/30 10:07:59;;;;;;;2.57;2.37;;;24.50;1.00;;;;;;5093498;28;20184;-78
2022/07/30 10:10:27;;;;;;;3.00;2.73;;;24.50;1.00;;;;;;5092911;28;20403;-73
2022/07/30 10:13:02;;;;;;;4.20;2.60;;;24.50;1.00;;;;;;5093006;28;20496;-77
2022/07/30 10:15:32;;;;;;;4.27;3.03;;;24.40;1.00;;;;;;5075719;28;20480;-72
2022/07/30 10:17:59;;;;;;;3.73;2.93;;;24.30;1.00;;;;;;5093684;28;20438;-76
2022/07/30 11:27:36;;;;;;;4.67;2.83;;;24.20;1.00;;;;;;5110298;27;21073;-76
2022/07/30 11:30:03;;;;;;;2.83;2.63;;;25.00;1.00;;;;;;5111286;28;20391;-67
2022/07/30 11:32:33;;;;;;;3.77;3.03;;;25.00;1.00;;;;;;5109719;28;20446;-70
2022/07/30 11:35:29;;;;;;;3.00;2.80;;;25.00;1.00;;;;;;5108935;28;20842;-68
2022/07/30 11:38:10;;;;;;;3.33;3.13;;;25.10;1.00;;;;;;5100952;28;20435;-76
2022/07/30 11:40:45;;;;;;;3.10;2.90;;;25.10;1.00;;;;;;5110474;28;20394;-73
2022/07/30 11:43:20;;;;;;;3.60;2.80;;;25.10;1.00;;;;;;5109052;28;20926;-65
2022/07/30 11:46:06;;;;;;;5.57;3.57;;;25.30;1.00;;;;;;5110247;28;20555;-68
2022/07/30 11:48:32;;;;;;;3.80;3.20;;;25.40;1.00;;;;;;5108684;28;20426;-67
2022/07/30 11:50:58;;;;;;;6.40;2.80;;;25.60;1.00;;;;;;5110322;28;20440;-67
2022/07/30 11:53:24;;;;;;;2.77;2.57;;;26.40;1.00;;;;;;5110183;28;20398;-67
2022/07/30 11:55:58;;;;;;;6.73;3.20;;;26.70;1.00;;;;;;5109687;28;20199;-67
2022/07/30 11:58:38;;;;;;;2.70;2.50;;;26.80;1.00;;;;;;5109727;28;20294;-68
2022/07/30 12:01:15;;;;;;;3.63;3.37;;;26.80;1.00;;;;;;5110133;28;20390;-67
2022/07/30 12:03:43;;;;;;;3.20;2.90;;;26.70;1.00;;;;;;5110100;28;20403;-67
2022/07/30 12:06:22;;;;;;;3.00;2.40;;;26.50;1.00;;;;;;5109414;28;20395;-75
2022/07/30 12:08:50;;;;;;;2.63;2.43;;;26.50;1.00;;;;;;5109916;28;20448;-67
2022/07/30 12:11:16;;;;;;;5.00;2.57;;;27.40;1.00;;;;;;5109585;28;20395;-72
2022/07/30 12:13:43;;;;;;;4.40;2.70;;;28.50;1.00;;;;;;5109866;28;20406;-71
2022/07/30 12:16:10;;;;;;;2.70;2.50;;;29.00;1.00;;;;;;5109117;28;20469;-76
2022/07/30 12:18:36;;;;;;;2.03;1.93;;;29.10;1.00;;;;;;5109679;28;20988;-67
2022/07/30 12:21:10;;;;;;;3.33;2.60;;;29.40;1.00;;;;;;5109744;28;20540;-68
2022/07/30 12:23:37;;;;;;;2.47;2.33;;;29.50;1.00;;;;;;5109618;28;20485;-76
2022/07/30 12:26:03;;;;;;;3.30;2.80;;;29.10;1.00;;;;;;5107930;28;20525;-75
2022/07/30 12:28:31;;;;;;;4.13;2.90;;;28.70;1.00;;;;;;5095378;28;20462;-76
2022/07/30 12:30:59;;;;;;;3.90;2.77;;;28.50;1.00;;;;;;5095859;28;20400;-67
2022/07/30 12:33:25;;;;;;;5.60;2.60;;;28.30;1.00;;;;;;5095862;28;20423;-75
2022/07/30 12:35:56;;;;;;;2.50;2.30;;;28.00;1.00;;;;;;5096044;28;20448;-76
2022/07/30 12:38:23;;;;;;;4.10;2.77;;;27.60;1.00;;;;;;5095373;28;20507;-67
2022/07/30 12:41:05;;;;;;;3.50;3.17;;;27.20;1.00;;;;;;5094820;28;20431;-67
2022/07/30 12:43:51;;;;;;;2.83;2.47;;;26.90;1.00;;;;;;5095661;28;20438;-74
2022/07/30 12:46:21;;;;;;;2.90;2.70;;;26.40;1.00;;;;;;5095107;28;20407;-72
2022/07/30 12:48:53;;;;;;;3.37;2.60;;;26.10;1.00;;;;;;5095307;28;20423;-70
2022/07/30 12:51:19;;;;;;;3.20;2.90;;;26.00;1.00;;;;;;5094314;28;20761;-71
2022/07/30 12:53:45;;;;;;;4.47;2.40;;;25.80;1.00;;;;;;5095454;28;20892;-72
2022/07/30 12:56:18;;;;;;;5.30;2.60;;;25.80;1.00;;;;;;5093550;28;20462;-66
2022/07/30 12:58:44;;;;;;;4.60;2.97;;;25.80;1.00;;;;;;5095356;28;20461;-72
2022/07/30 13:01:10;;;;;;;7.80;2.73;;;25.80;1.00;;;;;;5095386;28;20865;-72
2022/07/30 13:03:40;;;;;;;2.83;2.47;;;25.70;1.00;;;;;;5095374;28;20408;-76
2022/07/30 13:06:13;;;;;;;3.27;3.07;;;25.70;1.00;;;;;;5094588;28;20403;-71
2022/07/30 13:08:49;;;;;;;3.33;2.83;;;25.60;1.00;;;;;;5094757;28;20424;-72
2022/07/30 13:11:17;;;;;;;6.93;3.30;;;25.60;1.00;;;;;;5094856;28;20403;-75
2022/07/30 13:13:43;;;;;;;2.57;2.37;;;25.60;1.00;;;;;;5094764;28;20927;-70
2022/07/30 13:16:09;;;;;;;3.73;2.80;;;25.50;1.00;;;;;;5093992;28;20446;-68
2022/07/30 13:18:35;;;;;;;4.57;2.93;;;25.60;1.00;;;;;;5094692;28;20197;-71
2022/07/30 13:21:02;;;;;;;6.60;3.10;;;25.50;1.00;;;;;;5095079;28;20788;-70
2022/07/30 13:23:28;;;;;;;2.93;2.73;;;25.40;1.00;;;;;;5093797;28;20769;-72
2022/07/30 13:25:55;;;;;;;5.93;3.70;;;25.30;1.00;;;;;;5094416;28;20427;-71
2022/07/30 13:28:21;;;;;;;6.20;3.00;;;25.20;1.00;;;;;;5094059;28;20438;-71
2022/07/30 13:30:47;;;;;;;3.37;3.13;;;25.10;1.00;;;;;;5094797;28;20415;-68
2022/07/30 13:33:13;;;;;;;3.67;3.37;;;25.00;1.00;;;;;;5094721;28;20421;-71
2022/07/30 13:35:39;;;;;;;3.73;3.23;;;25.10;1.00;;;;;;5094731;28;20462;-71
2022/07/30 13:38:05;;;;;;;7.90;3.20;;;25.00;1.00;;;;;;5093046;28;20419;-77
2022/07/30 13:40:32;;;;;;;5.57;3.30;;;25.00;1.00;;;;;;5094797;28;20461;-79
2022/07/30 13:42:58;;;;;;;3.60;3.30;;;24.90;1.00;;;;;;5094782;28;20201;-78
2022/07/30 13:45:24;;;;;;;4.67;3.13;;;24.90;1.00;;;;;;5093062;28;20809;-76
2022/07/30 13:47:50;;;;;;;3.47;2.73;;;24.70;1.00;;;;;;5093660;28;20428;-76
2022/07/30 13:50:16;;;;;;;5.30;3.47;;;24.60;1.00;;;;;;5094305;28;20169;-76
2022/07/30 13:52:41;;;;;;;3.20;3.00;;;24.70;1.00;;;;;;5094306;28;20487;-72
2022/07/30 13:55:07;;;;;;;3.53;3.23;;;24.70;1.00;;;;;;5094155;28;20254;-72
2022/07/30 13:57:33;;;;;;;3.80;3.40;;;24.80;1.00;;;;;;5093731;28;20646;-72
2022/07/30 13:59:58;;;;;;;4.30;3.90;;;24.80;1.00;;;;;;5094180;28;20173;-72
2022/07/30 14:02:24;;;;;;;4.17;3.77;;;24.90;1.00;;;;;;5094289;28;20524;-78
2022/07/30 14:04:50;;;;;;;5.67;2.83;;;25.00;1.00;;;;;;5094115;28;20260;-76
2022/07/30 14:07:15;;;;;;;5.40;3.20;;;25.00;1.00;;;;;;5093376;28;20198;-75
2022/07/30 14:09:41;;;;;;;4.03;3.73;;;25.00;1.00;;;;;;5092969;28;20181;-71
2022/07/30 14:12:07;;;;;;;3.00;2.80;;;25.00;1.00;;;;;;5093987;28;20180;-72
2022/07/30 14:14:32;;;;;;;6.40;4.57;;;25.00;1.00;;;;;;5094389;28;20174;-71
2022/07/30 14:16:58;;;;;;;4.30;3.90;;;24.90;1.00;;;;;;5092302;28;20173;-72
2022/07/30 14:19:24;;;;;;;4.03;3.23;;;24.90;1.00;;;;;;5093923;28;20170;-75
2022/07/30 14:21:51;;;;;;;5.10;3.73;;;24.90;1.00;;;;;;5093816;28;20170;-79
2022/07/30 14:24:17;;;;;;;7.43;4.63;;;24.80;1.00;;;;;;5092942;28;20635;-79
2022/07/30 14:26:43;;;;;;;4.27;3.93;;;24.80;1.00;;;;;;5093039;28;20430;-77
2022/07/30 14:29:09;;;;;;;3.97;3.67;;;24.70;1.00;;;;;;5092986;28;20268;-78
2022/07/30 14:31:35;;;;;;;6.90;3.50;;;24.60;1.00;;;;;;5093703;28;20422;-79
2022/07/30 14:34:02;;;;;;;3.70;3.50;;;24.40;1.00;;;;;;5093726;28;20439;-73
2022/07/30 14:36:29;;;;;;;4.10;3.80;;;24.20;1.00;;;;;;5092788;28;20556;-76
2022/07/30 14:38:59;;;;;;;6.77;4.13;;;23.90;1.00;;;;;;5093429;28;20458;-76
2022/07/30 14:41:25;;;;;;;4.80;4.30;;;23.80;1.00;;;;;;5092917;28;20758;-75
2022/07/30 14:43:51;;;;;;;3.83;3.50;;;23.70;1.00;;;;;;5093750;28;20487;-76
2022/07/30 14:46:17;;;;;;;4.00;3.70;;;23.70;1.00;;;;;;5091611;28;20443;-73
2022/07/30 14:48:43;;;;;;;4.30;3.40;;;23.80;1.00;;;;;;5093274;28;20846;-75
2022/07/30 14:51:09;;;;;;;4.27;3.97;;;23.80;1.00;;;;;;5093298;28;20438;-72
2022/07/30 14:53:35;;;;;;;4.87;4.47;;;23.80;1.00;;;;;;5093277;28;20177;-76
2022/07/30 14:56:01;;;;;;;7.03;5.73;;;23.80;1.00;;;;;;5091407;28;20477;-76
2022/07/30 14:58:27;;;;;;;9.20;8.40;;;23.80;1.00;;;;;;5091456;28;20204;-75
2022/07/30 15:00:53;;;;;;;5.73;5.33;;;23.70;1.00;;;;;;5091937;28;20181;-73
2022/07/30 15:03:18;;;;;;;5.10;4.60;;;23.60;1.00;;;;;;5093406;28;20204;-76
2022/07/30 15:05:44;;;;;;;10.10;4.97;;;23.60;1.00;;;;;;5093047;28;20412;-72
2022/07/30 15:08:10;;;;;;;9.23;5.70;;;23.40;1.00;;;;;;5091943;28;20200;-73
2022/07/30 15:10:36;;;;;;;10.10;7.20;;;23.30;1.00;;;;;;5092975;28;20272;-74